createdAt,value
2022-09-15T00:02:03.497Z,3.50
2022-09-15T00:05:05.673Z,3.88
2022-09-15T00:08:07.611Z,2.90
2022-09-15T00:11:17.703Z,3.42
2022-09-15T00:14:19.733Z,3.35
2022-09-15T00:17:21.760Z,3.25
2022-09-15T00:20:23.718Z,3.63
2022-09-15T00:23:25.937Z,2.80
2022-09-15T00:26:28.926Z,3.15
2022-09-15T00:29:30.874Z,3.17
2022-09-15T00:32:32.986Z,2.83
2022-09-15T00:35:37.022Z,3.15
2022-09-15T00:38:39.221Z,3.67
2022-09-15T00:41:41.392Z,3.30
2022-09-15T00:44:52.565Z,2.90
2022-09-15T00:47:54.605Z,3.30
2022-09-15T00:50:57.090Z,3.28
2022-09-15T00:54:00.703Z,2.87
2022-09-15T00:57:11.629Z,3.17
2022-09-15T01:00:15.559Z,3.75
2022-09-15T01:03:17.956Z,2.67
2022-09-15T01:06:33.067Z,3.15
2022-09-15T01:09:37.932Z,2.77
2022-09-15T01:12:40.540Z,3.33
2022-09-15T01:15:42.434Z,3.10
2022-09-15T01:18:52.016Z,2.55
2022-09-15T01:21:58.608Z,2.85
2022-09-15T01:25:09.796Z,2.90
2022-09-15T01:28:14.432Z,3.30
2022-09-15T01:31:34.587Z,3.15
2022-09-15T01:34:48.209Z,2.90
2022-09-15T01:37:52.892Z,2.78
2022-09-15T01:41:00.868Z,2.73
2022-09-15T01:44:23.012Z,2.78
2022-09-15T01:47:25.924Z,3.40
2022-09-15T01:50:34.145Z,3.28
2022-09-15T01:53:36.259Z,3.47
2022-09-15T01:56:39.104Z,3.30
2022-09-15T01:59:41.057Z,3.10
2022-09-15T02:02:46.240Z,3.13
2022-09-15T02:05:52.535Z,3.85
2022-09-15T02:08:58.602Z,3.33
2022-09-15T02:12:08.665Z,3.90
2022-09-15T02:15:12.151Z,3.70
2022-09-15T02:18:17.467Z,3.80
2022-09-15T02:21:29.878Z,3.85
2022-09-15T02:24:37.290Z,4.00
2022-09-15T02:27:44.641Z,4.03
2022-09-15T02:30:47.601Z,3.88
2022-09-15T02:33:51.306Z,4.07
2022-09-15T02:36:54.079Z,4.20
2022-09-15T02:39:59.916Z,4.07
2022-09-15T02:43:02.994Z,3.83
2022-09-15T02:46:05.197Z,3.70
2022-09-15T02:49:07.767Z,3.65
2022-09-15T02:52:09.741Z,3.78
2022-09-15T02:55:11.667Z,3.60
2022-09-15T02:58:13.602Z,3.27
2022-09-15T03:01:15.746Z,3.50
2022-09-15T03:04:17.994Z,3.20
2022-09-15T03:07:20.272Z,3.50
2022-09-15T03:10:22.733Z,3.20
2022-09-15T03:13:24.636Z,2.60
2022-09-15T03:16:27.604Z,2.85
2022-09-15T03:19:29.637Z,2.95
2022-09-15T03:22:32.023Z,2.60
2022-09-15T03:25:33.940Z,2.45
2022-09-15T03:28:36.342Z,2.63
2022-09-15T03:31:38.444Z,2.35
2022-09-15T03:34:40.471Z,2.45
2022-09-15T03:37:42.459Z,2.55
2022-09-15T03:40:44.516Z,2.45
2022-09-15T03:43:46.515Z,1.97
2022-09-15T03:46:48.449Z,2.53
2022-09-15T03:49:50.869Z,2.60
2022-09-15T03:52:56.842Z,2.75
2022-09-15T03:56:07.337Z,2.88
2022-09-15T03:59:09.471Z,2.70
2022-09-15T04:02:11.531Z,2.90
2022-09-15T04:05:13.595Z,2.83
2022-09-15T04:08:15.541Z,3.15
2022-09-15T04:11:18.526Z,3.70
2022-09-15T04:14:20.478Z,3.77
2022-09-15T04:17:22.934Z,4.47
2022-09-15T04:20:24.920Z,4.32
2022-09-15T04:23:27.064Z,4.22
2022-09-15T04:26:31.387Z,4.28
2022-09-15T04:29:33.376Z,3.40
2022-09-15T04:32:38.344Z,3.75
2022-09-15T04:35:40.272Z,3.78
2022-09-15T04:38:42.639Z,3.83
2022-09-15T04:41:44.660Z,4.05
2022-09-15T04:44:46.624Z,3.73
2022-09-15T04:47:48.572Z,4.65
2022-09-15T04:50:50.547Z,4.20
2022-09-15T04:53:52.992Z,4.57
2022-09-15T04:56:54.965Z,5.15
2022-09-15T04:59:59.865Z,4.87
2022-09-15T05:03:01.801Z,6.03
2022-09-15T05:06:05.245Z,5.85
2022-09-15T05:09:10.486Z,5.90
2022-09-15T05:12:12.781Z,5.75
2022-09-15T05:15:14.936Z,5.47
2022-09-15T05:18:17.025Z,7.22
2022-09-15T05:21:20.005Z,6.57
2022-09-15T05:24:22.015Z,6.65
2022-09-15T05:27:24.054Z,6.40
2022-09-15T05:30:38.785Z,6.23
2022-09-15T05:33:42.841Z,6.57
2022-09-15T05:36:44.809Z,6.47
2022-09-15T05:39:46.892Z,6.35
2022-09-15T05:42:48.942Z,6.25
2022-09-15T05:45:54.901Z,6.10
2022-09-15T05:48:57.705Z,5.45
2022-09-15T05:52:00.192Z,4.88
2022-09-15T05:55:02.146Z,5.68
2022-09-15T05:58:04.524Z,5.88
2022-09-15T06:01:08.334Z,4.37
2022-09-15T06:04:11.027Z,4.60
2022-09-15T06:07:13.400Z,4.65
2022-09-15T06:10:15.749Z,3.92
2022-09-15T06:13:17.934Z,3.70
2022-09-15T06:16:21.277Z,3.90
2022-09-15T06:19:23.283Z,3.55
2022-09-15T06:22:25.369Z,3.63
2022-09-15T06:25:27.406Z,3.70
2022-09-15T06:28:29.506Z,4.03
2022-09-15T06:31:32.942Z,3.87
2022-09-15T06:34:35.111Z,3.20
2022-09-15T06:37:37.074Z,3.95
2022-09-15T06:40:39.161Z,3.13
2022-09-15T06:43:41.474Z,2.92
2022-09-15T06:46:43.759Z,2.47
2022-09-15T06:49:47.343Z,3.65
2022-09-15T06:52:49.509Z,2.70
2022-09-15T06:55:51.619Z,2.70
2022-09-15T06:58:54.127Z,3.80
2022-09-15T07:01:56.507Z,2.97
2022-09-15T07:04:59.077Z,2.90
2022-09-15T07:08:01.100Z,3.22
2022-09-15T07:11:03.109Z,3.40
2022-09-15T07:14:05.089Z,2.65
2022-09-15T07:17:07.119Z,3.03
2022-09-15T07:20:09.584Z,3.60
2022-09-15T07:23:11.655Z,3.00
2022-09-15T07:26:18.081Z,2.92
2022-09-15T07:29:20.037Z,2.85
2022-09-15T07:32:22.256Z,2.70
2022-09-15T07:35:24.343Z,2.97
2022-09-15T07:38:26.440Z,3.03
2022-09-15T07:41:30.529Z,2.72
2022-09-15T07:44:33.741Z,2.92
2022-09-15T07:47:36.302Z,2.70
2022-09-15T07:50:38.971Z,2.80
2022-09-15T07:53:41.813Z,3.45
2022-09-15T07:56:44.670Z,3.33
2022-09-15T07:59:46.890Z,3.60
2022-09-15T08:02:49.004Z,2.97
2022-09-15T08:05:51.051Z,2.78
2022-09-15T08:08:57.721Z,3.10
2022-09-15T08:12:03.756Z,3.83
2022-09-15T08:15:06.126Z,3.00
2022-09-15T08:18:08.162Z,3.80
2022-09-15T08:21:11.655Z,3.83
2022-09-15T08:24:13.846Z,3.65
2022-09-15T08:27:15.882Z,4.00
2022-09-15T08:30:18.480Z,3.40
2022-09-15T08:33:20.634Z,3.20
2022-09-15T08:36:24.590Z,3.40
2022-09-15T08:39:26.768Z,2.95
2022-09-15T08:42:30.615Z,2.75
2022-09-15T08:45:38.066Z,2.30
2022-09-15T08:48:46.053Z,2.40
2022-09-15T08:51:50.880Z,2.70
2022-09-15T08:54:57.624Z,2.03
2022-09-15T08:57:59.855Z,3.13
2022-09-15T09:01:10.972Z,2.40
2022-09-15T09:04:35.722Z,1.90
2022-09-15T09:07:50.334Z,2.70
2022-09-15T09:10:54.231Z,2.50
2022-09-15T09:14:15.017Z,2.65
2022-09-15T09:17:35.856Z,2.95
2022-09-15T09:20:38.486Z,2.63
2022-09-15T09:23:46.975Z,2.30
2022-09-15T09:26:50.213Z,2.50
2022-09-15T09:29:56.283Z,2.28
2022-09-15T09:33:01.467Z,2.05
2022-09-15T09:36:08.529Z,1.80
2022-09-15T09:39:13.736Z,2.10
2022-09-15T09:42:18.367Z,2.05
2022-09-15T09:45:20.412Z,1.80
2022-09-15T09:48:24.428Z,1.83
2022-09-15T09:51:30.313Z,1.67
2022-09-15T09:54:33.972Z,1.83
2022-09-15T09:57:39.925Z,1.48
2022-09-15T10:00:42.792Z,2.20
2022-09-15T10:03:45.390Z,1.70
2022-09-15T10:06:47.754Z,2.20
2022-09-15T10:09:54.373Z,2.10
2022-09-15T10:12:56.673Z,1.80
2022-09-15T10:16:00.600Z,2.15
2022-09-15T10:19:02.718Z,1.80
2022-09-15T10:22:05.477Z,1.97
2022-09-15T10:25:19.978Z,1.73
2022-09-15T10:28:23.931Z,1.63
2022-09-15T10:31:34.070Z,1.60
2022-09-15T10:34:36.319Z,1.90
2022-09-15T10:37:38.484Z,1.77
2022-09-15T10:40:51.014Z,1.65
2022-09-15T10:44:28.971Z,1.80
2022-09-15T10:47:43.357Z,1.40
2022-09-15T10:50:51.950Z,1.80
2022-09-15T10:54:00.161Z,1.50
2022-09-15T11:00:32.878Z,1.90
2022-09-15T11:03:46.892Z,1.70
2022-09-15T11:06:49.339Z,1.73
2022-09-15T11:10:01.956Z,1.77
2022-09-15T11:13:11.658Z,2.05
2022-09-15T11:16:16.375Z,1.65
2022-09-15T11:19:36.987Z,1.55
2022-09-15T11:22:49.319Z,1.50
2022-09-15T11:26:01.340Z,1.60
2022-09-15T11:29:22.860Z,1.42
2022-09-15T11:32:26.888Z,1.70
2022-09-15T11:35:38.084Z,1.65
2022-09-15T11:38:43.163Z,1.90
2022-09-15T11:42:04.783Z,1.90
2022-09-15T11:45:13.506Z,2.28
2022-09-15T11:48:22.509Z,2.30
2022-09-15T11:51:26.330Z,2.20
2022-09-15T11:54:36.998Z,2.95
2022-09-15T11:57:43.461Z,2.83
2022-09-15T12:00:56.659Z,2.28
2022-09-15T12:04:08.584Z,2.80
2022-09-15T12:07:18.911Z,2.80
2022-09-15T12:10:23.711Z,2.60
2022-09-15T12:13:26.271Z,2.73
2022-09-15T12:16:28.974Z,2.33
2022-09-15T12:19:33.819Z,2.40
2022-09-15T12:22:38.721Z,2.38
2022-09-15T12:25:49.587Z,2.38
2022-09-15T12:28:58.709Z,2.10
2022-09-15T12:32:19.686Z,2.80
2022-09-15T12:35:24.704Z,2.58
2022-09-15T12:38:26.998Z,2.55
2022-09-15T12:41:29.269Z,2.35
2022-09-15T12:44:33.520Z,1.93
2022-09-15T12:47:38.032Z,2.65
2022-09-15T12:50:42.649Z,2.00
2022-09-15T12:53:53.623Z,2.25
2022-09-15T12:56:56.444Z,2.20
2022-09-15T13:00:27.418Z,1.80
2022-09-15T13:03:57.809Z,1.70
2022-09-15T13:07:21.899Z,2.10
2022-09-15T13:10:27.838Z,2.60
2022-09-15T13:13:43.978Z,1.83
2022-09-15T13:16:48.942Z,2.20
2022-09-15T13:19:52.888Z,1.83
2022-09-15T13:27:37.954Z,2.10
2022-09-15T13:30:55.252Z,2.30
2022-09-15T13:38:13.530Z,2.30
2022-09-15T13:41:26.544Z,2.47
2022-09-15T13:44:47.043Z,2.10
2022-09-15T13:47:54.971Z,3.15
2022-09-15T13:50:59.621Z,2.10
2022-09-15T13:54:21.977Z,1.80
2022-09-15T13:58:54.567Z,2.60
2022-09-15T14:00:45.889Z,2.47
2022-09-15T14:03:52.371Z,2.42
2022-09-15T14:06:58.594Z,3.20
2022-09-15T14:10:02.989Z,2.55
2022-09-15T14:13:05.016Z,3.42
2022-09-15T14:16:19.116Z,3.42
2022-09-15T14:19:27.105Z,3.47
2022-09-15T14:22:30.213Z,4.13
2022-09-15T14:25:32.370Z,3.88
2022-09-15T14:28:34.369Z,4.13
2022-09-15T14:31:38.540Z,3.53
2022-09-15T14:34:42.063Z,3.97
2022-09-15T14:37:53.060Z,3.50
2022-09-15T14:40:56.928Z,3.50
2022-09-15T14:43:59.032Z,3.40
2022-09-15T14:47:01.045Z,3.10
2022-09-15T14:50:12.380Z,3.47
2022-09-15T14:53:20.033Z,3.03
2022-09-15T14:56:25.029Z,2.90
2022-09-15T14:59:30.882Z,3.55
2022-09-15T15:02:35.794Z,2.70
2022-09-15T15:05:40.692Z,2.67
2022-09-15T15:08:46.801Z,2.53
2022-09-15T15:11:51.414Z,3.53
2022-09-15T15:14:54.450Z,2.38
2022-09-15T15:17:57.172Z,2.00
2022-09-15T15:20:59.197Z,2.35
2022-09-15T15:24:01.980Z,2.50
2022-09-15T15:27:23.508Z,1.90
2022-09-15T15:30:31.487Z,2.00
2022-09-15T15:33:33.646Z,2.10
2022-09-15T15:36:35.888Z,2.75
2022-09-15T15:39:37.950Z,1.70
2022-09-15T15:42:51.081Z,3.05
2022-09-15T15:46:01.216Z,3.42
2022-09-15T15:49:06.716Z,2.92
2022-09-15T15:52:08.700Z,2.50
2022-09-15T15:55:18.484Z,2.23
2022-09-15T15:58:20.963Z,2.50
2022-09-15T16:01:22.957Z,2.85
2022-09-15T16:04:24.920Z,3.17
2022-09-15T16:07:31.159Z,2.97
2022-09-15T16:10:40.737Z,2.50
2022-09-15T16:13:43.104Z,2.45
2022-09-15T16:16:45.189Z,2.50
2022-09-15T16:19:47.161Z,1.98
2022-09-15T16:22:49.148Z,2.60
2022-09-15T16:26:07.556Z,2.40
2022-09-15T16:29:10.080Z,2.47
2022-09-15T16:32:17.824Z,2.55
2022-09-15T16:35:27.049Z,2.70
2022-09-15T16:38:29.242Z,3.20
2022-09-15T16:41:33.851Z,2.30
2022-09-15T16:44:38.645Z,2.90
2022-09-15T16:47:40.591Z,2.65
2022-09-15T16:50:50.061Z,2.50
2022-09-15T16:53:57.992Z,2.67
2022-09-15T16:56:59.969Z,2.53
2022-09-15T17:00:03.516Z,2.60
2022-09-15T17:03:06.602Z,2.10
2022-09-15T17:06:10.617Z,2.90
2022-09-15T17:09:12.616Z,2.00
2022-09-15T17:12:14.633Z,2.13
2022-09-15T17:15:18.552Z,2.10
2022-09-15T17:18:21.406Z,2.00
2022-09-15T17:21:23.381Z,2.42
2022-09-15T17:24:25.835Z,2.40
2022-09-15T17:27:27.799Z,3.00
2022-09-15T17:30:30.729Z,2.47
2022-09-15T17:33:33.118Z,4.07
2022-09-15T17:36:37.268Z,2.47
2022-09-15T17:39:39.204Z,2.33
2022-09-15T17:42:41.865Z,2.80
2022-09-15T17:45:43.913Z,2.50
2022-09-15T17:48:45.880Z,2.47
2022-09-15T17:51:47.871Z,2.83
2022-09-15T17:54:49.831Z,3.17
2022-09-15T17:57:51.785Z,2.73
2022-09-15T18:00:54.033Z,4.32
2022-09-15T18:03:56.010Z,4.65
2022-09-15T18:06:58.251Z,4.55
2022-09-15T18:10:00.913Z,5.95
2022-09-15T18:13:03.843Z,6.90
2022-09-15T18:16:06.809Z,8.82
2022-09-15T18:19:08.942Z,11.38
2022-09-15T18:22:12.974Z,7.88
2022-09-15T18:25:44.018Z,7.28
2022-09-15T18:28:46.063Z,5.53
2022-09-15T18:31:48.051Z,4.72
2022-09-15T18:34:50.022Z,3.85
2022-09-15T18:37:56.071Z,4.53
2022-09-15T18:40:58.282Z,4.70
2022-09-15T18:44:00.237Z,5.20
2022-09-15T18:47:02.655Z,5.13
2022-09-15T18:50:06.530Z,4.78
2022-09-15T18:53:08.513Z,5.57
2022-09-15T18:56:11.243Z,4.90
2022-09-15T18:59:16.647Z,5.37
2022-09-15T19:02:19.877Z,4.72
2022-09-15T19:05:22.077Z,4.25
2022-09-15T19:08:24.313Z,3.85
2022-09-15T19:11:28.810Z,3.72
2022-09-15T19:14:31.387Z,3.87
2022-09-15T19:17:33.357Z,3.75
2022-09-15T19:20:35.315Z,4.00
2022-09-15T19:23:37.319Z,4.47
2022-09-15T19:26:39.315Z,3.70
2022-09-15T19:29:41.686Z,4.03
2022-09-15T19:32:43.955Z,3.35
2022-09-15T19:35:46.155Z,3.00
2022-09-15T19:38:48.540Z,2.80
2022-09-15T19:41:50.836Z,2.78
2022-09-15T19:44:52.848Z,2.97
2022-09-15T19:47:54.834Z,2.60
2022-09-15T19:50:56.895Z,3.10
2022-09-15T19:53:59.603Z,3.00
2022-09-15T19:57:01.813Z,3.08
2022-09-15T20:00:04.748Z,2.83
2022-09-15T20:03:06.948Z,3.13
2022-09-15T20:06:09.291Z,2.97
2022-09-15T20:09:11.305Z,2.75
2022-09-15T20:12:13.333Z,3.65
2022-09-15T20:15:15.376Z,3.30
2022-09-15T20:18:17.971Z,3.78
2022-09-15T20:21:32.857Z,3.55
2022-09-15T20:24:43.911Z,4.47
2022-09-15T20:27:47.662Z,3.88
2022-09-15T20:30:58.516Z,3.57
2022-09-15T20:34:01.149Z,3.80
2022-09-15T20:37:03.135Z,3.80
2022-09-15T20:40:06.878Z,4.10
2022-09-15T20:43:08.927Z,4.70
2022-09-15T20:46:12.302Z,4.27
2022-09-15T20:49:14.387Z,4.63
2022-09-15T20:52:16.608Z,5.10
2022-09-15T20:55:19.120Z,4.50
2022-09-15T20:58:21.121Z,5.63
2022-09-15T21:01:27.389Z,6.13
2022-09-15T21:04:29.508Z,6.15
2022-09-15T21:07:31.691Z,6.00
2022-09-15T21:10:33.615Z,6.25
2022-09-15T21:13:37.227Z,6.20
2022-09-15T21:16:39.349Z,6.27
2022-09-15T21:19:41.319Z,7.05
2022-09-15T21:22:43.314Z,7.38
2022-09-15T21:25:45.232Z,6.82
2022-09-15T21:28:47.336Z,6.63
2022-09-15T21:31:49.872Z,7.20
2022-09-15T21:34:51.872Z,6.20
2022-09-15T21:37:56.582Z,6.72
2022-09-15T21:41:02.330Z,6.57
2022-09-15T21:44:04.417Z,6.63
2022-09-15T21:47:06.437Z,6.20
2022-09-15T21:50:08.612Z,6.97
2022-09-15T21:53:11.086Z,5.20
2022-09-15T21:56:13.396Z,5.05
2022-09-15T21:59:18.399Z,4.85
2022-09-15T22:02:20.394Z,4.70
2022-09-15T22:05:22.343Z,4.60
2022-09-15T22:08:24.596Z,5.00
2022-09-15T22:11:26.614Z,4.03
2022-09-15T22:14:28.566Z,4.15
2022-09-15T22:17:30.537Z,3.30
2022-09-15T22:20:32.511Z,4.43
2022-09-15T22:23:34.923Z,4.03
2022-09-15T22:26:37.699Z,4.40
2022-09-15T22:29:39.676Z,4.50
2022-09-15T22:32:41.621Z,5.03
2022-09-15T22:35:46.862Z,4.40
2022-09-15T22:38:48.863Z,5.18
2022-09-15T22:41:50.821Z,5.03
2022-09-15T22:44:52.808Z,6.40
2022-09-15T22:47:55.169Z,5.40
2022-09-15T22:50:57.175Z,5.32
2022-09-15T22:53:59.463Z,6.00
2022-09-15T22:57:01.397Z,4.45
2022-09-15T23:00:03.577Z,4.85
2022-09-15T23:03:06.055Z,5.40
2022-09-15T23:06:08.082Z,5.20
2022-09-15T23:09:10.947Z,5.20
2022-09-15T23:12:12.913Z,4.53
2022-09-15T23:15:14.847Z,4.97
2022-09-15T23:18:16.825Z,4.37
2022-09-15T23:21:19.439Z,4.40
2022-09-15T23:24:21.589Z,4.35
2022-09-15T23:27:24.035Z,4.95
2022-09-15T23:30:27.139Z,5.55
2022-09-15T23:33:29.989Z,5.63
2022-09-15T23:36:31.968Z,5.47
2022-09-15T23:39:33.893Z,6.38
2022-09-15T23:42:35.854Z,5.43
2022-09-15T23:45:38.201Z,5.80
2022-09-15T23:48:40.189Z,6.47
2022-09-15T23:51:42.206Z,7.05
2022-09-15T23:54:44.304Z,5.97
2022-09-15T23:57:46.237Z,6.00
